Accueil
METAR-TAF:

METAR-TAF

Aéroports :

Kosrae, Micronésie

Aéroport international de Kosrae

latitude: 05-21N, longitude: 162-57E, altitude: 3 m

Observation

Le bulletin a été fait il y a 51 minutes, à 23:50 UTC
Vent 17 kt de nord-est
Température 30°C
Humidité 70%
Pression 1009 hPa
Visibilité: 16.1 km
Nuages épars à une hauteur de 2000 ft
Nuages épars à une hauteur de 13000 ft
Ciel couvert à une hauteur de 30000 ft

METAR: PTSA 212350Z 05017KT 10SM SCT020 SCT130 OVC300 30/24 A2980 RMK LAST

Heure: 11:41 (00:41 UTC)

Prévision

Le bulletin a été fait il y a 1 heure et 16 minutes, à 23:25 UTC
Prévision valable du 22 à 00 UTC au 22 à 24 UTC
Vent 13 kt de est/nord-est
Visibilité: 10 km
Nuages épars à une hauteur de 2000 ft
Nuages épars à une hauteur de 13000 ft

TAF: PTSA 212325Z 2200/2224 06013KT P6SM SCT020 SCT130

Observations et prévisions météorologiques de plus de 4000 aéroports (messages METAR et TAF).

Les stations disponibles sont représentées par des disques jaunes et rouges sur la carte.

Passer la souris dessus pour voir le nom de la station.

Cliquer dessus pour voir les observations et prévisions météorologiques.

Pour changer de carte: cliquez sur les boutons verts avec une croix noire pour zoomer, sur le bouton vert avec un tiret pour effectuer un zoom arrière, ou sur les flèches vertes pour les cartes adjacentes.


METAR-TAF: